Have a Safe July 4th! 

Flight Track Log - Related Links

Times and Time Zones

All times are in EDT time to prevent confusion due to time zone crossing. See the EJA122 flight status page for this flight to view local times or setup timezone preferences in your user account.

Time Position Orientation Groundspeed Altitude Reporting Facility
EDT Latitude Longitude Course Direction KTS MPH feet Rate Location/Type
Mon 11:46:14 AM 37.7519 -80.4431 200° South 357 411 8,300  Level Washington Center
Mon 11:47:15 AM 37.6858 -80.4731 200° South 302 348 10,100 1,587 Climbing Washington Center
Mon 11:48:15 AM 37.6097 -80.5022 197° South 290 334 11,500 1,545 Climbing Washington Center
Mon 11:50:33 AM 37.3778 -80.5942 197° South 368 423 15,200 1,606 Climbing Atlanta Center
Mon 11:51:33 AM 37.2706 -80.6381 198° South 388 447 16,800 1,550 Climbing Atlanta Center
Mon 11:52:33 AM 37.1697 -80.6867 201° Southwest 399 459 18,300 1,650 Climbing Atlanta Center
Mon 11:53:33 AM 37.0611 -80.7564 207° Southwest 404 465 20,100 1,700 Climbing Atlanta Center
Mon 11:54:33 AM 36.9583 -80.8125 204° Southwest 404 465 21,700 1,450 Climbing Atlanta Center
Mon 11:55:33 AM 36.8619 -80.8711 206° Southwest 397 457 23,000 1,150 Climbing Atlanta Center
Mon 11:56:33 AM 36.7717 -80.9264 206° Southwest 397 457 24,000 950 Climbing Atlanta Center
Mon 11:57:33 AM 36.6769 -80.9794 204° Southwest 391 450 24,900 950 Climbing Atlanta Center
Mon 11:58:33 AM 36.5783 -81.0372 205° Southwest 396 456 25,900 1,000 Climbing Atlanta Center
Mon 11:59:33 AM 36.4819 -81.0953 206° Southwest 391 450 26,900 1,000 Climbing Atlanta Center
Mon 12:00:33 PM 36.3831 -81.1531 205° Southwest 391 450 27,900 1,000 Climbing Atlanta Center
Mon 12:01:33 PM 36.2844 -81.2106 205° Southwest 391 450 28,900 1,000 Climbing Atlanta Center
Mon 12:02:33 PM 36.1772 -81.2736 205° Southwest 391 450 29,900 1,000 Climbing Atlanta Center
Mon 12:03:33 PM 36.0806 -81.3333 207° Southwest 397 457 30,900 1,000 Climbing Atlanta Center
Mon 12:04:33 PM 35.9817 -81.3906 205° Southwest 392 451 31,900 950 Climbing Atlanta Center
Mon 12:05:33 PM 35.8850 -81.4475 206° Southwest 387 445 32,800 950 Climbing Atlanta Center
Mon 12:06:33 PM 35.7881 -81.5069 206° Southwest 387 445 33,800 600 Climbing Atlanta Center
Mon 12:07:33 PM 35.6869 -81.5639 205° Southwest 392 451 34,000 100 Climbing Atlanta Center
Mon 12:08:33 PM 35.5839 -81.6206 204° Southwest 403 464 34,000  Level Atlanta Center
Mon 12:09:33 PM 35.4744 -81.6825 205° Southwest 415 478 34,000  Level Atlanta Center
Mon 12:10:33 PM 35.3692 -81.7414 205° Southwest 420 483 34,000  Level Atlanta Center
Mon 12:11:33 PM 35.2578 -81.8081 206° Southwest 425 489 34,000  Level Atlanta Center
Mon 12:12:33 PM 35.1547 -81.8819 210° Southwest 437 503 34,000  Level Atlanta Center
Mon 12:13:33 PM 35.0517 -81.9608 212° Southwest 438 504 34,000  Level Atlanta Center
Mon 12:14:33 PM 34.9508 -82.0317 210° Southwest 438 504 34,000  Level Atlanta Center
Mon 12:15:33 PM 34.8600 -82.0922 209° Southwest 429 494 34,000  Level Atlanta Center
Mon 12:16:33 PM 34.7628 -82.1603 210° Southwest 422 486 34,000  Level Atlanta Center
Mon 12:17:33 PM 34.6658 -82.2306 211° Southwest 416 479 34,000  Level Atlanta Center
Mon 12:18:33 PM 34.5689 -82.3008 211° Southwest 411 473 34,000  Level Atlanta Center
Mon 12:19:33 PM 34.4758 -82.3681 211° Southwest 405 466 34,000  Level Atlanta Center
Mon 12:20:33 PM 34.3786 -82.4356 210° Southwest 400 460 34,000  Level Atlanta Center
Mon 12:21:33 PM 34.2875 -82.5025 211° Southwest 400 460 34,000  Level Atlanta Center
Mon 12:22:33 PM 34.1903 -82.5697 210° Southwest 400 460 34,000  Level Atlanta Center
Mon 12:23:33 PM 34.1014 -82.6289 209° Southwest 405 466 34,000  Level Atlanta Center
Mon 12:24:33 PM 34.0039 -82.6981 210° Southwest 405 466 34,000  Level Atlanta Center
Mon 12:25:33 PM 33.9044 -82.7647 209° Southwest 405 466 34,000  Level Atlanta Center
Mon 12:26:33 PM 33.7883 -82.8467 210° Southwest 405 466 34,000  Level Atlanta Center
Mon 12:27:33 PM 33.6889 -82.9153 210° Southwest 413 475 34,000  Level Atlanta Center
Mon 12:28:33 PM 33.5914 -82.9839 210° Southwest 413 475 34,000  Level Atlanta Center
Mon 12:29:33 PM 33.4917 -83.0525 210° Southwest 413 475 34,000  Level Atlanta Center
Mon 12:30:33 PM 33.3942 -83.1208 210° Southwest 413 475 34,000  Level Atlanta Center
Mon 12:31:33 PM 33.2967 -83.1889 210° Southwest 413 475 34,000  Level Atlanta Center
Mon 12:32:33 PM 33.2072 -83.2492 209° Southwest 413 475 34,000  Level Atlanta Center
Mon 12:33:33 PM 33.1075 -83.3197 211° Southwest 413 475 34,000  Level Atlanta Center
Mon 12:34:33 PM 33.0161 -83.3872 212° Southwest 400 460 34,000  Level Atlanta Center
Mon 12:35:33 PM 32.9183 -83.4522 209° Southwest 400 460 34,000  Level Atlanta Center
Mon 12:36:33 PM 32.8206 -83.5172 209° Southwest 400 460 34,000  Level Atlanta Center
Mon 12:37:33 PM 32.7225 -83.5819 209° Southwest 400 460 34,000  Level Atlanta Center
Mon 12:38:33 PM 32.6247 -83.6467 209° Southwest 400 460 34,000  Level Atlanta Center
Mon 12:39:33 PM 32.5289 -83.7136 211° Southwest 400 460 34,000  Level Atlanta Center
Mon 12:40:33 PM 32.4289 -83.7806 209° Southwest 400 460 34,000  Level Atlanta Center
Mon 12:41:33 PM 32.3289 -83.8472 209° Southwest 400 460 34,000 -150 Level Atlanta Center
Mon 12:42:33 PM 32.2308 -83.9136 210° Southwest 405 466 33,700 -650 Descending Atlanta Center
Mon 12:43:33 PM 32.1244 -83.9850 210° Southwest 419 482 32,700 -1,050 Descending Atlanta Center
Mon 12:44:33 PM 32.0158 -84.0558 209° Southwest 438 504 31,600 -1,050 Descending Atlanta Center
Mon 12:45:33 PM 31.9031 -84.1319 210° Southwest 450 518 30,600 -971 Descending Atlanta Center
Mon 12:46:18 PM 31.8217 -84.1861 209° Southwest 458 527 29,900 -971 Descending Jacksonville Center
Mon 12:47:18 PM 31.7122 -84.2625 211° Southwest 446 513 28,900 -950 Descending Jacksonville Center
Mon 12:48:18 PM 31.6317 -84.3761 230° Southwest 446 513 28,000 -550 Descending Jacksonville Center
Mon 12:49:18 PM 31.5842 -84.5069 247° West 440 506 27,800 -650 Descending Jacksonville Center
Mon 12:50:18 PM 31.5364 -84.6403 247° West 440 506 26,700 -1,050 Descending Jacksonville Center
Mon 12:51:18 PM 31.4908 -84.7733 248° West 440 506 25,700 -850 Descending Jacksonville Center
Mon 12:52:18 PM 31.4447 -84.9089 248° West 445 512 25,000 -650 Descending Jacksonville Center
Mon 12:53:18 PM 31.3986 -85.0442 248° West 450 518 24,400 -500 Descending Jacksonville Center
Mon 12:54:18 PM 31.3461 -85.1889 247° West 450 518 24,000 -200 Descending Jacksonville Center
Mon 12:55:18 PM 31.3083 -85.3072 250° West 436 502 24,000  Level Jacksonville Center
Mon 12:56:18 PM 31.2642 -85.4347 248° West 431 496 24,000  Level Jacksonville Center
Mon 12:57:18 PM 31.2175 -85.5694 248° West 437 503 24,000  Level Jacksonville Center
Mon 12:58:18 PM 31.1708 -85.7092 249° West 450 518 24,000  Level Jacksonville Center
Mon 12:59:18 PM 31.1172 -85.8531 247° West 450 518 24,000  Level Jacksonville Center
Mon 01:00:18 PM 31.0683 -85.9825 246° West 445 512 24,000  Level Jacksonville Center
Mon 01:01:18 PM 30.9892 -86.0647 222° Southwest 425 489 24,000  Level Jacksonville Center
Mon 01:02:18 PM 30.8764 -86.1481 212° Southwest 425 489 24,000  Level Jacksonville Center
Mon 01:03:18 PM 30.7719 -86.2217 211° Southwest 441 507 24,000 -600 Level Jacksonville Center
Mon 01:04:18 PM 30.6722 -86.2858 209° Southwest 435 501 22,800 -1,750 Descending Jacksonville Center
Mon 01:05:18 PM 30.5792 -86.3283 201° Southwest 374 430 20,500 -5,900 Descending Jacksonville Center
Mon 01:06:18 PM 30.4800 -86.2983 165° South 354 407 11,000 -4,790 Descending Jacksonville Center
Mon 01:07:17 PM 30.3925 -86.2881 174° South 346 398 11,000  Level Jacksonville Center
Mon 01:08:17 PM 30.3325 -86.3411 217° Southwest 267 307 11,000  Level Jacksonville Center
Mon 01:09:18 PM 30.3789 -86.4031 311° West 152 175 11,000  Level Jacksonville Center
Mon 01:10:18 PM 30.4281 -86.4411 326° Northwest 159 183 11,000  Level Jacksonville Center
Mon 01:11:18 PM 30.4206 -86.4792 257° West 125 144 11,000  Level Jacksonville Center
Mon 01:12:18 PM 30.3819 -86.5236 225° Southwest 133 153 11,000  Level Jacksonville Center
Mon 01:14:00 PM 30.4000 -86.4667 52° Northeast  Level FlightAware Approximate

Login

Don't have an account? Register now (free) for customized features, flight alerts, and more!